createdAt,value
2023-04-07T00:00:31.298Z,43.30
2023-04-07T00:01:31.334Z,45.00
2023-04-07T00:02:31.294Z,48.10
2023-04-07T00:03:31.491Z,52.20
2023-04-07T00:04:31.253Z,43.20
2023-04-07T00:05:31.286Z,45.30
2023-04-07T00:06:31.170Z,46.70
2023-04-07T00:07:31.831Z,49.60
2023-04-07T00:08:31.188Z,46.70
2023-04-07T00:09:31.154Z,54.80
2023-04-07T00:10:31.154Z,54.10
2023-04-07T00:11:31.104Z,53.70
2023-04-07T00:12:31.176Z,48.30
2023-04-07T00:13:31.118Z,56.80
2023-04-07T00:14:31.191Z,86.70
2023-04-07T00:15:31.122Z,62.70
2023-04-07T00:16:31.081Z,52.30
2023-04-07T00:17:31.147Z,50.50
2023-04-07T00:18:31.076Z,49.20
2023-04-07T00:19:30.997Z,81.80
2023-04-07T00:20:31.005Z,75.10
2023-04-07T00:21:30.980Z,57.50
2023-04-07T00:22:30.968Z,58.40
2023-04-07T00:23:30.944Z,49.00
2023-04-07T00:24:34.285Z,51.30
2023-04-07T00:25:30.938Z,52.10
2023-04-07T00:26:30.938Z,60.00
2023-04-07T00:27:30.920Z,69.90
2023-04-07T00:28:30.927Z,51.40
2023-04-07T00:29:30.887Z,81.10
2023-04-07T00:30:30.874Z,68.50
2023-04-07T00:31:30.926Z,52.00
2023-04-07T00:32:30.880Z,53.20
2023-04-07T00:33:30.853Z,62.90
2023-04-07T00:34:30.859Z,55.20
2023-04-07T00:35:30.912Z,55.50
2023-04-07T00:36:30.791Z,52.80
2023-04-07T00:37:30.819Z,49.00
2023-04-07T00:38:30.773Z,52.60
2023-04-07T00:39:30.760Z,48.80
2023-04-07T00:40:30.738Z,48.10
2023-04-07T00:41:30.718Z,74.20
2023-04-07T00:42:30.724Z,58.90
2023-04-07T00:43:30.740Z,70.40
2023-04-07T00:44:30.724Z,61.10
2023-04-07T00:45:30.671Z,51.10
2023-04-07T00:46:30.738Z,47.00
2023-04-07T00:47:30.660Z,59.10
2023-04-07T00:48:30.647Z,58.80
2023-04-07T00:49:30.663Z,57.60
2023-04-07T00:50:30.628Z,65.20
2023-04-07T00:51:30.644Z,61.20
2023-04-07T00:52:30.594Z,63.60
2023-04-07T00:53:30.591Z,64.50
2023-04-07T00:54:30.572Z,64.10
2023-04-07T00:55:30.582Z,81.60
2023-04-07T00:56:30.633Z,70.70
2023-04-07T00:57:30.675Z,76.10
2023-04-07T00:58:30.535Z,77.90
2023-04-07T00:59:30.535Z,62.80
2023-04-07T01:00:30.517Z,69.80
2023-04-07T01:01:30.637Z,81.60
2023-04-07T01:02:30.681Z,97.40
2023-04-07T01:03:30.766Z,89.80
2023-04-07T01:04:30.605Z,101.70
2023-04-07T01:05:30.444Z,96.40
2023-04-07T01:06:30.506Z,107.90
2023-04-07T01:07:30.437Z,92.20
2023-04-07T01:08:30.410Z,121.80
2023-04-07T01:09:30.432Z,104.30
2023-04-07T01:10:30.424Z,143.10
2023-04-07T01:11:30.365Z,70.40
2023-04-07T01:12:30.354Z,89.90
2023-04-07T01:13:30.358Z,139.40
2023-04-07T01:14:30.400Z,84.60
2023-04-07T01:15:30.332Z,88.30
2023-04-07T01:16:30.426Z,91.00
2023-04-07T01:17:30.289Z,93.40
2023-04-07T01:18:30.274Z,112.50
2023-04-07T01:19:30.301Z,100.50
2023-04-07T01:20:30.262Z,67.30
2023-04-07T01:21:30.234Z,79.10
2023-04-07T01:22:30.229Z,85.40
2023-04-07T01:23:30.220Z,148.50
2023-04-07T01:24:30.207Z,91.30
2023-04-07T01:25:30.210Z,124.40
2023-04-07T01:26:30.219Z,64.50
2023-04-07T01:27:30.155Z,160.20
2023-04-07T01:28:30.160Z,101.10
2023-04-07T01:29:30.119Z,100.30
2023-04-07T01:30:30.161Z,101.90
2023-04-07T01:31:30.186Z,124.10
2023-04-07T01:32:30.141Z,102.60
2023-04-07T01:33:30.090Z,89.50
2023-04-07T01:34:30.051Z,151.50
2023-04-07T01:35:30.067Z,86.50
2023-04-07T01:36:30.040Z,88.50
2023-04-07T01:37:30.053Z,87.80
2023-04-07T01:38:30.008Z,118.80
2023-04-07T01:39:30.004Z,188.90
2023-04-07T01:40:30.001Z,158.60
2023-04-07T01:41:29.971Z,120.90
2023-04-07T01:42:29.995Z,171.70
2023-04-07T01:43:29.943Z,111.40
2023-04-07T01:44:29.949Z,82.20
2023-04-07T01:45:29.947Z,76.70
2023-04-07T01:46:29.912Z,83.30
2023-04-07T01:47:29.998Z,104.40
2023-04-07T01:48:29.980Z,103.80
2023-04-07T01:49:29.903Z,101.50
2023-04-07T01:50:30.103Z,144.10
2023-04-07T01:51:29.928Z,116.00
2023-04-07T01:52:29.900Z,96.00
2023-04-07T01:53:29.855Z,170.20
2023-04-07T01:54:29.819Z,110.20
2023-04-07T01:55:29.801Z,112.50
2023-04-07T01:56:29.815Z,168.60
2023-04-07T01:57:29.813Z,189.70
2023-04-07T01:58:29.788Z,101.10
2023-04-07T01:59:29.792Z,104.60
2023-04-07T02:00:29.767Z,132.20
2023-04-07T02:01:29.882Z,130.40
2023-04-07T02:02:29.846Z,119.40
2023-04-07T02:03:29.863Z,113.40
2023-04-07T02:04:29.712Z,83.00
2023-04-07T02:05:29.755Z,106.00
2023-04-07T02:06:29.683Z,118.10
2023-04-07T02:07:29.718Z,107.70
2023-04-07T02:08:31.179Z,121.20
2023-04-07T02:09:29.701Z,117.00
2023-04-07T02:10:38.380Z,113.90
2023-04-07T02:11:29.597Z,100.20
2023-04-07T02:12:29.619Z,124.40
2023-04-07T02:13:29.639Z,101.70
2023-04-07T02:14:29.608Z,101.90
2023-04-07T02:15:29.650Z,126.00
2023-04-07T02:16:29.607Z,115.10
2023-04-07T02:17:29.636Z,121.30
2023-04-07T02:18:29.514Z,92.10
2023-04-07T02:19:29.514Z,101.30
2023-04-07T02:20:29.549Z,91.20
2023-04-07T02:21:29.496Z,146.90
2023-04-07T02:22:29.491Z,127.00
2023-04-07T02:23:39.200Z,102.20
2023-04-07T02:24:36.970Z,153.00
2023-04-07T02:25:29.450Z,109.50
2023-04-07T02:26:29.456Z,98.90
2023-04-07T02:27:29.430Z,115.40
2023-04-07T02:28:29.439Z,109.40
2023-04-07T02:29:29.396Z,132.60
2023-04-07T02:30:29.393Z,131.00
2023-04-07T02:31:29.426Z,137.70
2023-04-07T02:32:29.431Z,97.00
2023-04-07T02:33:29.350Z,134.90
2023-04-07T02:34:29.365Z,131.20
2023-04-07T02:35:29.311Z,134.60
2023-04-07T02:36:29.338Z,117.40
2023-04-07T02:37:29.331Z,114.30
2023-04-07T02:38:29.277Z,100.70
2023-04-07T02:39:29.292Z,138.20
2023-04-07T02:40:29.263Z,148.00
2023-04-07T02:41:29.240Z,153.10
2023-04-07T02:42:29.267Z,99.60
2023-04-07T02:43:29.224Z,91.10
2023-04-07T02:44:29.227Z,99.00
2023-04-07T02:45:29.201Z,137.40
2023-04-07T02:46:29.286Z,136.90
2023-04-07T02:47:29.234Z,93.60
2023-04-07T02:48:29.142Z,115.70
2023-04-07T02:49:29.155Z,132.00
2023-04-07T02:50:29.186Z,94.00
2023-04-07T02:51:29.133Z,97.60
2023-04-07T02:52:29.123Z,115.50
2023-04-07T02:53:29.090Z,117.20
2023-04-07T02:54:29.105Z,100.30
2023-04-07T02:55:29.072Z,102.60
2023-04-07T02:56:29.064Z,127.90
2023-04-07T02:57:29.060Z,104.40
2023-04-07T02:58:29.030Z,102.20
2023-04-07T02:59:29.028Z,110.30
2023-04-07T03:00:29.004Z,114.40
2023-04-07T03:01:29.025Z,167.30
2023-04-07T03:02:29.076Z,129.10
2023-04-07T03:03:29.180Z,150.00
2023-04-07T03:04:28.976Z,138.80
2023-04-07T03:05:28.930Z,135.70
2023-04-07T03:06:28.911Z,124.60
2023-04-07T03:07:28.930Z,95.80
2023-04-07T03:08:28.904Z,107.00
2023-04-07T03:09:28.890Z,138.50
2023-04-07T03:10:28.869Z,101.40
2023-04-07T03:11:28.876Z,102.50
2023-04-07T03:12:28.848Z,95.10
2023-04-07T03:13:28.811Z,97.20
2023-04-07T03:14:28.839Z,103.20
2023-04-07T03:15:28.809Z,122.60
2023-04-07T03:16:28.786Z,95.50
2023-04-07T03:17:28.838Z,122.50
2023-04-07T03:18:28.805Z,99.60
2023-04-07T03:19:28.736Z,85.20
2023-04-07T03:20:30.020Z,91.40
2023-04-07T03:21:28.783Z,85.00
2023-04-07T03:22:28.718Z,93.70
2023-04-07T03:23:29.421Z,80.90
2023-04-07T03:24:28.697Z,95.40
2023-04-07T03:25:28.708Z,105.40
2023-04-07T03:26:28.682Z,85.50
2023-04-07T03:27:28.714Z,117.20
2023-04-07T03:28:28.814Z,86.80
2023-04-07T03:29:28.712Z,118.40
2023-04-07T03:30:28.755Z,90.70
2023-04-07T03:31:28.676Z,105.60
2023-04-07T03:32:28.589Z,82.50
2023-04-07T03:33:28.596Z,98.90
2023-04-07T03:34:28.563Z,151.80
2023-04-07T03:35:28.534Z,99.00
2023-04-07T03:36:28.572Z,77.40
2023-04-07T03:37:28.511Z,84.10
2023-04-07T03:38:28.538Z,75.70
2023-04-07T03:39:28.538Z,90.40
2023-04-07T03:40:28.484Z,84.70
2023-04-07T03:41:28.531Z,106.60
2023-04-07T03:42:28.492Z,95.90
2023-04-07T03:43:28.461Z,84.30
2023-04-07T03:44:28.501Z,89.30
2023-04-07T03:45:28.414Z,103.10
2023-04-07T03:46:28.467Z,83.50
2023-04-07T03:47:28.445Z,89.80
2023-04-07T03:48:29.265Z,105.90
2023-04-07T03:49:28.347Z,127.80
2023-04-07T03:50:28.354Z,81.10
2023-04-07T03:51:28.331Z,82.40
2023-04-07T03:52:28.326Z,82.00
2023-04-07T03:53:28.313Z,95.00
2023-04-07T03:54:28.333Z,86.40
2023-04-07T03:55:28.303Z,105.60
2023-04-07T03:56:29.057Z,97.40
2023-04-07T03:57:28.249Z,91.10
2023-04-07T03:58:28.256Z,94.80
2023-04-07T03:59:28.246Z,80.60
2023-04-07T04:00:28.249Z,80.20
2023-04-07T04:01:28.275Z,105.70
2023-04-07T04:02:28.235Z,134.20
2023-04-07T04:03:28.314Z,95.80
2023-04-07T04:04:28.285Z,84.80
2023-04-07T04:05:28.158Z,85.50
2023-04-07T04:06:28.174Z,91.30
2023-04-07T04:07:28.160Z,86.60
2023-04-07T04:08:28.108Z,103.30
2023-04-07T04:09:28.131Z,121.20
2023-04-07T04:10:28.095Z,109.10
2023-04-07T04:11:28.101Z,87.50
2023-04-07T04:12:28.059Z,106.60
2023-04-07T04:13:28.070Z,127.90
2023-04-07T04:14:28.057Z,126.00
2023-04-07T04:15:28.062Z,102.40
2023-04-07T04:16:28.058Z,83.80
2023-04-07T04:17:28.057Z,92.70
2023-04-07T04:18:28.018Z,88.40
2023-04-07T04:19:28.006Z,78.40
2023-04-07T04:20:27.947Z,93.80
2023-04-07T04:21:27.961Z,102.60
2023-04-07T04:22:28.008Z,157.10
2023-04-07T04:23:27.937Z,80.80
2023-04-07T04:24:27.934Z,82.40
2023-04-07T04:25:27.901Z,87.40
2023-04-07T04:26:27.897Z,83.30
2023-04-07T04:27:27.909Z,89.10
2023-04-07T04:28:27.852Z,77.90
2023-04-07T04:29:27.844Z,77.90
2023-04-07T04:30:27.869Z,109.20
2023-04-07T04:31:27.935Z,98.90
2023-04-07T04:32:27.868Z,79.10
2023-04-07T04:33:27.808Z,70.10
2023-04-07T04:34:27.829Z,83.40
2023-04-07T04:35:27.782Z,102.70
2023-04-07T04:36:27.835Z,95.70
2023-04-07T04:37:27.748Z,74.50
2023-04-07T04:38:27.741Z,100.20
2023-04-07T04:39:27.766Z,67.20
2023-04-07T04:40:27.748Z,70.60
2023-04-07T04:41:27.865Z,75.30
2023-04-07T04:42:27.814Z,80.40
2023-04-07T04:43:27.668Z,70.10
2023-04-07T04:44:27.664Z,62.40
2023-04-07T04:45:27.648Z,80.90
2023-04-07T04:46:27.666Z,64.40
2023-04-07T04:47:27.659Z,75.90
2023-04-07T04:48:27.637Z,70.90
2023-04-07T04:49:27.593Z,80.60
2023-04-07T04:50:27.575Z,72.20
2023-04-07T04:51:27.608Z,74.40
2023-04-07T04:52:27.559Z,152.40
2023-04-07T04:53:27.703Z,85.60
2023-04-07T04:54:27.531Z,81.40
2023-04-07T04:55:27.522Z,61.60
2023-04-07T04:56:27.553Z,90.30
2023-04-07T04:57:27.545Z,63.80
2023-04-07T04:58:27.460Z,84.50
2023-04-07T04:59:27.518Z,72.70
2023-04-07T05:00:27.471Z,76.90
2023-04-07T05:01:27.508Z,83.50
2023-04-07T05:02:27.572Z,76.20
2023-04-07T05:03:27.656Z,75.00
2023-04-07T05:04:27.562Z,109.70
2023-04-07T05:05:27.380Z,96.60
2023-04-07T05:06:27.411Z,85.80
2023-04-07T05:07:27.383Z,113.40
2023-04-07T05:08:27.349Z,69.30
2023-04-07T05:09:27.354Z,59.40
2023-04-07T05:10:27.363Z,50.10
2023-04-07T05:11:27.360Z,56.90
2023-04-07T05:12:27.365Z,82.10
2023-04-07T05:13:27.325Z,55.70
2023-04-07T05:14:27.309Z,49.40
2023-04-07T05:15:27.346Z,43.00
2023-04-07T05:16:27.259Z,52.30
2023-04-07T05:17:27.963Z,52.90
2023-04-07T05:18:27.202Z,42.60
2023-04-07T05:19:27.252Z,46.70
2023-04-07T05:20:27.205Z,48.30
2023-04-07T05:21:27.230Z,45.90
2023-04-07T05:22:27.139Z,43.80
2023-04-07T05:23:27.262Z,54.60
2023-04-07T05:24:29.069Z,50.90
2023-04-07T05:25:27.208Z,52.60
2023-04-07T05:26:27.300Z,50.30
2023-04-07T05:27:27.119Z,67.20
2023-04-07T05:28:27.116Z,40.50
2023-04-07T05:29:27.232Z,52.60
2023-04-07T05:30:27.168Z,44.80
2023-04-07T05:31:27.162Z,37.30
2023-04-07T05:32:27.222Z,40.20
2023-04-07T05:33:27.086Z,45.20
2023-04-07T05:34:27.591Z,40.50
2023-04-07T05:35:27.123Z,40.10
2023-04-07T05:36:35.514Z,45.60
2023-04-07T05:37:27.010Z,35.70
2023-04-07T05:38:27.170Z,34.90
2023-04-07T05:39:27.254Z,35.70
2023-04-07T05:40:27.202Z,38.00
2023-04-07T05:41:27.230Z,42.90
2023-04-07T05:42:27.305Z,39.40
2023-04-07T05:43:27.178Z,38.30
2023-04-07T05:44:26.998Z,39.40
2023-04-07T05:45:27.296Z,37.10
2023-04-07T05:46:26.983Z,38.20
2023-04-07T05:47:27.135Z,41.30
2023-04-07T05:48:27.141Z,42.20
2023-04-07T05:49:27.151Z,41.20
2023-04-07T05:50:27.163Z,43.20
2023-04-07T05:51:26.926Z,53.20
2023-04-07T05:52:26.968Z,44.20
2023-04-07T05:53:27.039Z,41.10
2023-04-07T05:54:26.826Z,50.90
2023-04-07T05:55:26.875Z,38.10
2023-04-07T05:56:26.929Z,40.10
2023-04-07T05:57:26.956Z,43.20
2023-04-07T05:58:26.957Z,42.90
2023-04-07T05:59:26.773Z,54.50
2023-04-07T06:00:26.776Z,39.30
2023-04-07T06:01:27.069Z,37.60
2023-04-07T06:02:27.354Z,33.80
2023-04-07T06:03:27.858Z,33.10
2023-04-07T06:04:26.745Z,38.40
2023-04-07T06:05:27.083Z,30.90
2023-04-07T06:06:26.673Z,35.30
2023-04-07T06:07:26.665Z,34.80
2023-04-07T06:08:26.872Z,29.30
2023-04-07T06:09:26.940Z,33.20
2023-04-07T06:10:26.728Z,33.80
2023-04-07T06:11:26.774Z,29.10
2023-04-07T06:12:26.944Z,37.10
2023-04-07T06:13:26.694Z,33.60
2023-04-07T06:14:26.988Z,51.80
2023-04-07T06:15:26.621Z,42.20
2023-04-07T06:16:26.623Z,33.50
2023-04-07T06:17:26.807Z,30.50
2023-04-07T06:18:26.668Z,51.80
2023-04-07T06:19:26.639Z,32.70
2023-04-07T06:20:26.804Z,32.60
2023-04-07T06:21:26.659Z,34.20
2023-04-07T06:22:26.956Z,33.80
2023-04-07T06:23:26.670Z,31.60
2023-04-07T06:24:26.553Z,28.90
2023-04-07T06:25:26.662Z,26.60
2023-04-07T06:26:26.470Z,30.10
2023-04-07T06:27:26.586Z,28.20
2023-04-07T06:28:26.394Z,29.50
2023-04-07T06:29:27.650Z,29.60
2023-04-07T06:30:26.594Z,31.50
2023-04-07T06:31:26.395Z,32.20
2023-04-07T06:32:26.746Z,28.20
2023-04-07T06:33:26.637Z,34.30
2023-04-07T06:34:28.192Z,31.50
2023-04-07T06:35:26.397Z,32.10
2023-04-07T06:36:26.412Z,31.10
2023-04-07T06:37:26.380Z,34.10
2023-04-07T06:38:27.131Z,54.60
2023-04-07T06:39:26.380Z,31.50
2023-04-07T06:40:26.530Z,38.40
2023-04-07T06:41:26.486Z,39.10
2023-04-07T06:42:26.765Z,41.50
2023-04-07T06:43:28.974Z,44.10
2023-04-07T06:44:26.345Z,53.90
2023-04-07T06:45:26.518Z,81.40
2023-04-07T06:46:26.379Z,55.40
2023-04-07T06:47:26.111Z,54.30
2023-04-07T06:48:26.205Z,65.90
2023-04-07T06:49:26.339Z,49.00
2023-04-07T06:50:26.208Z,44.80
2023-04-07T06:51:26.373Z,56.60
2023-04-07T06:52:26.370Z,51.30
2023-04-07T06:53:26.142Z,110.00
2023-04-07T06:54:26.186Z,65.70
2023-04-07T06:55:26.889Z,59.70
2023-04-07T06:56:27.202Z,66.30
2023-04-07T06:57:26.389Z,68.60
2023-04-07T06:58:26.277Z,82.60
2023-04-07T06:59:25.975Z,81.60
2023-04-07T07:00:27.320Z,68.90
2023-04-07T07:01:26.191Z,99.80
2023-04-07T07:02:26.108Z,61.90
2023-04-07T07:03:26.571Z,93.10
2023-04-07T07:04:26.492Z,59.90
2023-04-07T07:05:26.041Z,70.00
2023-04-07T07:06:26.581Z,58.80
2023-04-07T07:07:26.030Z,57.80
2023-04-07T07:08:26.300Z,65.40
2023-04-07T07:09:26.174Z,67.00
2023-04-07T07:10:26.197Z,55.00
2023-04-07T07:11:26.035Z,74.20
2023-04-07T07:12:25.954Z,66.30
2023-04-07T07:13:25.851Z,60.00
2023-04-07T07:14:25.957Z,61.00
2023-04-07T07:15:26.934Z,86.90
2023-04-07T07:16:25.814Z,77.30
2023-04-07T07:17:26.427Z,80.90
2023-04-07T07:18:35.284Z,76.40
2023-04-07T07:19:25.835Z,109.60
2023-04-07T07:20:26.147Z,57.40
2023-04-07T07:21:26.037Z,90.00
2023-04-07T07:22:25.714Z,90.90
2023-04-07T07:23:26.620Z,67.10
2023-04-07T07:24:25.765Z,66.00
2023-04-07T07:25:25.781Z,63.10
2023-04-07T07:26:27.493Z,58.10
2023-04-07T07:27:26.600Z,60.40
2023-04-07T07:28:28.229Z,59.10
2023-04-07T07:29:29.847Z,55.50
2023-04-07T07:30:25.635Z,68.00
2023-04-07T07:31:25.677Z,58.00
2023-04-07T07:32:25.679Z,55.10
2023-04-07T07:33:25.692Z,50.30
2023-04-07T07:34:25.988Z,57.90
2023-04-07T07:35:25.685Z,57.00
2023-04-07T07:36:25.775Z,56.00
2023-04-07T07:37:25.694Z,58.90
2023-04-07T07:38:25.886Z,57.40
2023-04-07T07:39:26.011Z,58.90
2023-04-07T07:40:25.642Z,65.60
2023-04-07T07:41:25.562Z,55.50
2023-04-07T07:42:25.531Z,59.40
2023-04-07T07:43:25.653Z,53.10
2023-04-07T07:44:25.516Z,105.70
2023-04-07T07:45:26.482Z,56.30
2023-04-07T07:46:25.527Z,86.50
2023-04-07T07:47:25.346Z,46.40
2023-04-07T07:48:25.382Z,55.30
2023-04-07T07:49:25.297Z,56.10
2023-04-07T07:50:25.597Z,47.50
2023-04-07T07:51:25.623Z,55.30
2023-04-07T07:52:25.335Z,47.50
2023-04-07T07:53:25.509Z,44.10
2023-04-07T07:54:25.512Z,49.40
2023-04-07T07:55:25.437Z,61.90
2023-04-07T07:56:25.668Z,43.00
2023-04-07T07:57:25.617Z,36.60
2023-04-07T07:58:25.425Z,38.00
2023-04-07T07:59:25.578Z,38.30
2023-04-07T08:00:25.293Z,37.80
2023-04-07T08:01:25.218Z,31.40
2023-04-07T08:02:25.272Z,35.00
2023-04-07T08:03:25.334Z,41.10
2023-04-07T08:04:25.104Z,35.60
2023-04-07T08:05:25.200Z,34.90
2023-04-07T08:06:25.256Z,36.20
2023-04-07T08:07:25.067Z,49.90
2023-04-07T08:08:25.034Z,36.20
2023-04-07T08:09:25.133Z,36.80
2023-04-07T08:10:25.270Z,46.80
2023-04-07T08:11:24.960Z,34.90
2023-04-07T08:12:24.920Z,41.10
2023-04-07T08:13:25.141Z,36.70
2023-04-07T08:14:25.478Z,37.40
2023-04-07T08:15:25.282Z,37.90
2023-04-07T08:16:25.327Z,39.40
2023-04-07T08:17:24.968Z,41.60
2023-04-07T08:18:24.949Z,39.70
2023-04-07T08:19:25.857Z,34.30
2023-04-07T08:20:25.048Z,56.00
2023-04-07T08:21:25.097Z,44.40
2023-04-07T08:22:25.034Z,47.50
2023-04-07T08:23:24.747Z,40.90
2023-04-07T08:24:24.784Z,37.90
2023-04-07T08:25:24.738Z,34.20
2023-04-07T08:26:24.727Z,44.90
2023-04-07T08:27:24.738Z,62.10
2023-04-07T08:28:25.062Z,35.70
2023-04-07T08:29:24.866Z,48.20
2023-04-07T08:30:25.717Z,47.50
2023-04-07T08:31:24.796Z,42.80
2023-04-07T08:32:24.689Z,47.00
2023-04-07T08:33:24.683Z,35.10
2023-04-07T08:34:24.626Z,36.80
2023-04-07T08:35:24.584Z,38.20
2023-04-07T08:36:24.614Z,50.00
2023-04-07T08:37:24.579Z,51.90
2023-04-07T08:38:24.560Z,35.80
2023-04-07T08:39:24.532Z,31.70
2023-04-07T08:40:24.538Z,42.00
2023-04-07T08:41:24.562Z,49.20
2023-04-07T08:42:24.517Z,37.50
2023-04-07T08:43:24.644Z,36.60
2023-04-07T08:44:24.806Z,36.30
2023-04-07T08:45:24.904Z,34.00
2023-04-07T08:46:24.993Z,44.80
2023-04-07T08:47:24.758Z,44.60
2023-04-07T08:48:24.681Z,50.00
2023-04-07T08:49:24.574Z,48.00
2023-04-07T08:50:24.828Z,82.80
2023-04-07T08:51:24.510Z,55.90
2023-04-07T08:52:24.696Z,55.60
2023-04-07T08:53:24.413Z,40.10
2023-04-07T08:54:24.971Z,54.80
2023-04-07T08:55:24.423Z,43.80
2023-04-07T08:56:24.728Z,49.20
2023-04-07T08:57:32.082Z,44.80
2023-04-07T08:58:24.314Z,52.50
2023-04-07T08:59:24.269Z,52.00
2023-04-07T09:00:24.316Z,51.60
2023-04-07T09:01:24.339Z,45.00
2023-04-07T09:02:24.360Z,43.90
2023-04-07T09:03:24.366Z,38.40
2023-04-07T09:04:24.249Z,52.60
2023-04-07T09:05:24.233Z,48.70
2023-04-07T09:06:24.189Z,54.20
2023-04-07T09:07:24.168Z,63.30
2023-04-07T09:08:24.186Z,58.10
2023-04-07T09:09:24.161Z,67.90
2023-04-07T09:10:27.790Z,51.10
2023-04-07T09:11:33.650Z,43.30
2023-04-07T09:12:24.099Z,51.10
2023-04-07T09:13:24.083Z,71.00
2023-04-07T09:14:24.126Z,43.90
2023-04-07T09:15:24.038Z,63.80
2023-04-07T09:16:24.091Z,42.30
2023-04-07T09:17:24.040Z,78.40
2023-04-07T09:18:24.107Z,53.80
2023-04-07T09:19:24.019Z,49.70
2023-04-07T09:20:23.978Z,45.00
2023-04-07T09:21:24.017Z,40.90
2023-04-07T09:22:23.946Z,40.40
2023-04-07T09:23:23.983Z,47.70
2023-04-07T09:24:23.939Z,50.10
2023-04-07T09:25:23.996Z,56.50
2023-04-07T09:26:23.897Z,58.00
2023-04-07T09:27:23.916Z,43.40
2023-04-07T09:28:23.894Z,39.30
2023-04-07T09:29:23.886Z,41.20
2023-04-07T09:30:23.854Z,39.40
2023-04-07T09:31:24.045Z,35.70
2023-04-07T09:32:24.235Z,36.50
2023-04-07T09:33:23.811Z,39.00
2023-04-07T09:34:23.820Z,42.70
2023-04-07T09:35:24.210Z,32.90
2023-04-07T09:36:23.765Z,36.40
2023-04-07T09:37:23.749Z,40.40
2023-04-07T09:38:23.807Z,42.00
2023-04-07T09:39:23.770Z,31.60
2023-04-07T09:40:23.738Z,35.90
2023-04-07T09:41:23.693Z,32.80
2023-04-07T09:42:23.675Z,35.70
2023-04-07T09:43:23.659Z,44.30
2023-04-07T09:44:23.687Z,61.90
2023-04-07T09:45:33.316Z,40.40
2023-04-07T09:46:26.148Z,42.30
2023-04-07T09:47:23.610Z,50.20
2023-04-07T09:48:23.648Z,41.40
2023-04-07T09:49:23.624Z,37.30
2023-04-07T09:50:23.619Z,49.90
2023-04-07T09:51:23.550Z,40.10
2023-04-07T09:52:23.576Z,54.90
2023-04-07T09:53:23.845Z,43.50
2023-04-07T09:54:23.908Z,46.90
2023-04-07T09:55:23.543Z,50.50
2023-04-07T09:56:23.501Z,38.00
2023-04-07T09:57:23.490Z,46.30
2023-04-07T09:58:23.495Z,46.80
2023-04-07T09:59:23.457Z,74.70
2023-04-07T10:00:23.467Z,53.70
2023-04-07T10:01:23.447Z,52.90
2023-04-07T10:02:23.960Z,37.80
2023-04-07T10:03:25.531Z,47.90
2023-04-07T10:04:23.533Z,55.90
2023-04-07T10:05:23.383Z,41.40
2023-04-07T10:06:23.386Z,45.10
2023-04-07T10:07:23.378Z,41.20
2023-04-07T10:08:23.351Z,50.20
2023-04-07T10:09:23.684Z,42.40
2023-04-07T10:10:23.911Z,41.70
2023-04-07T10:11:26.944Z,40.90
2023-04-07T10:12:23.370Z,43.20
2023-04-07T10:13:23.325Z,43.10
2023-04-07T10:14:23.387Z,41.90
2023-04-07T10:15:23.361Z,38.90
2023-04-07T10:16:23.251Z,36.80
2023-04-07T10:17:23.218Z,43.40
2023-04-07T10:18:23.227Z,35.10
2023-04-07T10:19:23.213Z,38.70
2023-04-07T10:20:23.245Z,30.40
2023-04-07T10:21:23.149Z,31.00
2023-04-07T10:22:23.169Z,38.30
2023-04-07T10:23:23.114Z,36.40
2023-04-07T10:24:23.110Z,34.20
2023-04-07T10:25:23.093Z,26.40
2023-04-07T10:26:23.104Z,30.60
2023-04-07T10:27:23.060Z,26.30
2023-04-07T10:28:23.082Z,24.30
2023-04-07T10:29:23.055Z,21.80
2023-04-07T10:30:23.023Z,22.20
2023-04-07T10:31:23.040Z,26.70
2023-04-07T10:32:23.010Z,26.70
2023-04-07T10:33:23.129Z,29.30
2023-04-07T10:34:22.993Z,28.00
2023-04-07T10:35:23.093Z,26.70
2023-04-07T10:36:22.998Z,25.10
2023-04-07T10:37:22.958Z,24.90
2023-04-07T10:38:22.986Z,23.60
2023-04-07T10:39:22.902Z,22.10
2023-04-07T10:40:22.872Z,25.10
2023-04-07T10:41:22.875Z,29.80
2023-04-07T10:42:23.063Z,22.70
2023-04-07T10:43:22.902Z,24.80
2023-04-07T10:44:22.873Z,27.30
2023-04-07T10:45:22.934Z,25.20
2023-04-07T10:46:22.803Z,21.40
2023-04-07T10:47:22.824Z,24.80
2023-04-07T10:48:22.847Z,27.10
2023-04-07T10:49:22.738Z,27.00
2023-04-07T10:50:22.756Z,19.90
2023-04-07T10:51:22.726Z,23.80
2023-04-07T10:52:22.727Z,20.60
2023-04-07T10:53:22.730Z,22.30
2023-04-07T10:54:23.074Z,19.60
2023-04-07T10:55:22.657Z,21.80
2023-04-07T10:56:22.677Z,21.60
2023-04-07T10:57:22.686Z,22.60
2023-04-07T10:58:22.833Z,18.90
2023-04-07T10:59:22.587Z,17.40
2023-04-07T11:00:22.638Z,20.60
2023-04-07T11:01:22.618Z,20.20
2023-04-07T11:02:22.743Z,23.50
2023-04-07T11:03:22.727Z,17.40
2023-04-07T11:04:22.680Z,19.40
2023-04-07T11:05:22.573Z,17.80
2023-04-07T11:06:22.568Z,18.60
2023-04-07T11:07:22.489Z,24.90
2023-04-07T11:08:22.488Z,18.50
2023-04-07T11:09:22.449Z,21.60
2023-04-07T11:10:22.480Z,17.70
2023-04-07T11:11:22.447Z,18.30
2023-04-07T11:12:22.440Z,20.60
2023-04-07T11:13:22.453Z,22.20
2023-04-07T11:14:22.426Z,21.60
2023-04-07T11:15:22.432Z,22.40
2023-04-07T11:16:22.435Z,21.30
2023-04-07T11:17:22.392Z,20.50
2023-04-07T11:18:22.394Z,20.30
2023-04-07T11:19:22.330Z,20.00
2023-04-07T11:20:22.331Z,18.10
2023-04-07T11:21:22.276Z,17.10
2023-04-07T11:22:29.795Z,17.50
2023-04-07T11:23:23.248Z,15.50
2023-04-07T11:24:22.271Z,14.60
2023-04-07T11:25:22.265Z,14.90
2023-04-07T11:26:22.267Z,14.10
2023-04-07T11:27:22.208Z,13.60
2023-04-07T11:28:22.225Z,16.90
2023-04-07T11:29:22.187Z,15.20
2023-04-07T11:30:22.189Z,14.70
2023-04-07T11:31:22.192Z,14.10
2023-04-07T11:32:24.889Z,13.10
2023-04-07T11:33:22.200Z,13.90
2023-04-07T11:34:22.109Z,15.60
2023-04-07T11:35:22.150Z,14.30
2023-04-07T11:36:22.097Z,16.80
2023-04-07T11:37:22.089Z,14.10
2023-04-07T11:38:22.064Z,13.70
2023-04-07T11:39:22.184Z,13.90
2023-04-07T11:40:22.003Z,10.70
2023-04-07T11:41:22.007Z,11.30
2023-04-07T11:42:22.040Z,10.70
2023-04-07T11:43:21.989Z,14.70
2023-04-07T11:44:21.967Z,17.10
2023-04-07T11:45:21.967Z,14.70
2023-04-07T11:46:22.053Z,14.50
2023-04-07T11:47:21.970Z,16.00
2023-04-07T11:48:21.907Z,12.70
2023-04-07T11:49:21.876Z,14.80
2023-04-07T11:50:21.916Z,11.40
2023-04-07T11:51:21.865Z,12.10
2023-04-07T11:52:21.895Z,10.80
2023-04-07T11:53:21.824Z,12.50
2023-04-07T11:54:21.797Z,12.40
2023-04-07T11:55:22.541Z,10.30
2023-04-07T11:56:21.779Z,9.60
2023-04-07T11:57:21.762Z,11.20
2023-04-07T11:58:21.799Z,10.60
2023-04-07T11:59:21.775Z,11.80
2023-04-07T12:00:21.711Z,12.10
2023-04-07T12:01:21.706Z,12.40
2023-04-07T12:02:21.775Z,13.50
2023-04-07T12:03:21.744Z,13.20
2023-04-07T12:04:21.785Z,13.40
2023-04-07T12:05:21.656Z,13.10
2023-04-07T12:06:21.627Z,11.90
2023-04-07T12:07:21.611Z,12.10
2023-04-07T12:08:21.664Z,11.80
2023-04-07T12:09:21.644Z,11.60
2023-04-07T12:10:21.610Z,14.20
2023-04-07T12:11:21.589Z,14.70
2023-04-07T12:12:21.543Z,13.30
2023-04-07T12:13:21.535Z,16.90
2023-04-07T12:14:21.554Z,15.80
2023-04-07T12:15:21.560Z,14.40
2023-04-07T12:16:21.537Z,14.90
2023-04-07T12:17:21.515Z,18.60
2023-04-07T12:18:21.463Z,16.40
2023-04-07T12:19:21.495Z,15.00
2023-04-07T12:20:21.421Z,16.40
2023-04-07T12:21:21.415Z,14.20
2023-04-07T12:22:21.453Z,15.70
2023-04-07T12:23:21.412Z,17.80
2023-04-07T12:24:21.426Z,17.70
2023-04-07T12:25:21.444Z,19.30
2023-04-07T12:26:23.207Z,18.50
2023-04-07T12:27:29.443Z,17.80
2023-04-07T12:28:43.515Z,18.90
2023-04-07T12:29:42.342Z,20.20
2023-04-07T12:30:21.329Z,20.40
2023-04-07T12:31:21.340Z,23.00
2023-04-07T12:32:21.420Z,20.00
2023-04-07T12:33:21.299Z,19.20
2023-04-07T12:34:21.228Z,18.60
2023-04-07T12:35:21.267Z,20.00
2023-04-07T12:36:21.325Z,20.00
2023-04-07T12:37:21.242Z,18.60
2023-04-07T12:38:21.242Z,20.00
2023-04-07T12:39:21.236Z,20.10
2023-04-07T12:40:21.223Z,21.30
2023-04-07T12:41:21.143Z,20.20
2023-04-07T12:42:21.156Z,20.00
2023-04-07T12:43:21.164Z,19.50
2023-04-07T12:44:21.208Z,17.70
2023-04-07T12:45:21.186Z,19.20
2023-04-07T12:46:21.159Z,19.90
2023-04-07T12:47:21.248Z,17.30
2023-04-07T12:48:21.035Z,15.70